sensor_id;sensor_type;location;lat;lon;timestamp;P1;durP1;ratioP1;P2;durP2;ratioP2
29534;SDS011;16475;52.650;8.116;2023-08-01T00:00:38;3.00;;;2.67;;
29534;SDS011;16475;52.650;8.116;2023-08-01T00:03:04;1.80;;;1.70;;
29534;SDS011;16475;52.650;8.116;2023-08-01T00:05:29;1.37;;;1.37;;
29534;SDS011;16475;52.650;8.116;2023-08-01T00:07:54;2.50;;;2.00;;
29534;SDS011;16475;52.650;8.116;2023-08-01T00:10:20;2.50;;;2.10;;
29534;SDS011;16475;52.650;8.116;2023-08-01T00:12:45;1.90;;;1.80;;
29534;SDS011;16475;52.650;8.116;2023-08-01T00:15:10;9.73;;;2.50;;
29534;SDS011;16475;52.650;8.116;2023-08-01T00:17:36;2.37;;;2.17;;
29534;SDS011;16475;52.650;8.116;2023-08-01T00:20:02;1.80;;;1.70;;
29534;SDS011;16475;52.650;8.116;2023-08-01T00:22:28;2.17;;;2.07;;
29534;SDS011;16475;52.650;8.116;2023-08-01T00:24:53;3.13;;;2.83;;
29534;SDS011;16475;52.650;8.116;2023-08-01T00:27:19;2.17;;;1.97;;
29534;SDS011;16475;52.650;8.116;2023-08-01T00:29:44;2.10;;;2.00;;
29534;SDS011;16475;52.650;8.116;2023-08-01T00:32:10;2.63;;;2.43;;
29534;SDS011;16475;52.650;8.116;2023-08-01T00:34:36;4.77;;;4.37;;
29534;SDS011;16475;52.650;8.116;2023-08-01T00:37:01;7.97;;;2.67;;
29534;SDS011;16475;52.650;8.116;2023-08-01T00:39:26;2.17;;;2.03;;
29534;SDS011;16475;52.650;8.116;2023-08-01T00:41:52;2.23;;;2.13;;
29534;SDS011;16475;52.650;8.116;2023-08-01T00:44:17;2.13;;;1.90;;
29534;SDS011;16475;52.650;8.116;2023-08-01T00:46:44;1.93;;;1.83;;
29534;SDS011;16475;52.650;8.116;2023-08-01T00:49:10;1.60;;;1.53;;
29534;SDS011;16475;52.650;8.116;2023-08-01T00:51:35;2.20;;;1.67;;
29534;SDS011;16475;52.650;8.116;2023-08-01T00:54:01;22.87;;;3.07;;
29534;SDS011;16475;52.650;8.116;2023-08-01T00:56:26;9.23;;;1.63;;
29534;SDS011;16475;52.650;8.116;2023-08-01T00:58:51;1.67;;;1.57;;
29534;SDS011;16475;52.650;8.116;2023-08-01T01:01:17;1.70;;;1.70;;
29534;SDS011;16475;52.650;8.116;2023-08-01T01:03:42;2.23;;;2.07;;
29534;SDS011;16475;52.650;8.116;2023-08-01T01:06:22;1.60;;;1.50;;
29534;SDS011;16475;52.650;8.116;2023-08-01T01:08:50;1.80;;;1.63;;
29534;SDS011;16475;52.650;8.116;2023-08-01T01:11:15;1.40;;;1.40;;
29534;SDS011;16475;52.650;8.116;2023-08-01T01:13:41;30.03;;;2.00;;
29534;SDS011;16475;52.650;8.116;2023-08-01T01:16:06;2.03;;;1.93;;
29534;SDS011;16475;52.650;8.116;2023-08-01T01:18:32;11.93;;;2.33;;
29534;SDS011;16475;52.650;8.116;2023-08-01T01:20:57;1.87;;;1.87;;
29534;SDS011;16475;52.650;8.116;2023-08-01T01:23:22;2.27;;;2.17;;
29534;SDS011;16475;52.650;8.116;2023-08-01T01:25:49;2.53;;;2.40;;
29534;SDS011;16475;52.650;8.116;2023-08-01T01:28:16;2.57;;;2.37;;
29534;SDS011;16475;52.650;8.116;2023-08-01T01:30:43;2.47;;;2.37;;
29534;SDS011;16475;52.650;8.116;2023-08-01T01:33:09;2.93;;;2.73;;
29534;SDS011;16475;52.650;8.116;2023-08-01T01:35:35;3.07;;;2.80;;
29534;SDS011;16475;52.650;8.116;2023-08-01T01:38:00;3.83;;;3.53;;
29534;SDS011;16475;52.650;8.116;2023-08-01T01:40:28;16.93;;;3.73;;
29534;SDS011;16475;52.650;8.116;2023-08-01T01:42:57;7.93;;;2.47;;
29534;SDS011;16475;52.650;8.116;2023-08-01T01:45:24;2.20;;;2.10;;
29534;SDS011;16475;52.650;8.116;2023-08-01T01:47:49;4.10;;;3.70;;
29534;SDS011;16475;52.650;8.116;2023-08-01T01:50:15;2.80;;;2.60;;
29534;SDS011;16475;52.650;8.116;2023-08-01T01:52:40;3.20;;;2.90;;
29534;SDS011;16475;52.650;8.116;2023-08-01T01:55:06;4.10;;;2.37;;
29534;SDS011;16475;52.650;8.116;2023-08-01T01:57:31;5.33;;;2.97;;
29534;SDS011;16475;52.650;8.116;2023-08-01T01:59:56;4.33;;;3.40;;
29534;SDS011;16475;52.650;8.116;2023-08-01T02:02:22;2.80;;;2.60;;
29534;SDS011;16475;52.650;8.116;2023-08-01T02:04:47;4.87;;;4.27;;
29534;SDS011;16475;52.650;8.116;2023-08-01T02:07:13;2.67;;;2.47;;
29534;SDS011;16475;52.650;8.116;2023-08-01T02:09:39;8.47;;;2.83;;
29534;SDS011;16475;52.650;8.116;2023-08-01T02:12:05;3.50;;;3.23;;
29534;SDS011;16475;52.650;8.116;2023-08-01T02:14:32;8.00;;;3.63;;
29534;SDS011;16475;52.650;8.116;2023-08-01T02:16:57;2.63;;;2.47;;
29534;SDS011;16475;52.650;8.116;2023-08-01T02:19:23;3.43;;;3.13;;
29534;SDS011;16475;52.650;8.116;2023-08-01T02:21:49;4.43;;;4.03;;
29534;SDS011;16475;52.650;8.116;2023-08-01T02:24:14;2.70;;;2.50;;
29534;SDS011;16475;52.650;8.116;2023-08-01T02:26:39;2.73;;;2.53;;
29534;SDS011;16475;52.650;8.116;2023-08-01T02:29:04;2.93;;;2.73;;
29534;SDS011;16475;52.650;8.116;2023-08-01T02:31:30;2.70;;;2.50;;
29534;SDS011;16475;52.650;8.116;2023-08-01T02:33:55;2.73;;;2.53;;
29534;SDS011;16475;52.650;8.116;2023-08-01T02:36:21;4.57;;;2.90;;
29534;SDS011;16475;52.650;8.116;2023-08-01T02:38:47;46.17;;;4.50;;
29534;SDS011;16475;52.650;8.116;2023-08-01T02:41:13;3.17;;;2.93;;
29534;SDS011;16475;52.650;8.116;2023-08-01T02:43:38;4.43;;;3.20;;
29534;SDS011;16475;52.650;8.116;2023-08-01T02:46:03;5.10;;;2.43;;
29534;SDS011;16475;52.650;8.116;2023-08-01T02:48:30;2.93;;;2.43;;
29534;SDS011;16475;52.650;8.116;2023-08-01T02:50:57;4.50;;;2.00;;
29534;SDS011;16475;52.650;8.116;2023-08-01T02:53:23;15.27;;;2.90;;
29534;SDS011;16475;52.650;8.116;2023-08-01T02:55:48;3.77;;;2.40;;
29534;SDS011;16475;52.650;8.116;2023-08-01T02:58:14;16.07;;;3.80;;
29534;SDS011;16475;52.650;8.116;2023-08-01T03:00:39;2.63;;;2.43;;
29534;SDS011;16475;52.650;8.116;2023-08-01T03:03:05;9.87;;;3.43;;
29534;SDS011;16475;52.650;8.116;2023-08-01T03:05:31;4.10;;;3.80;;
29534;SDS011;16475;52.650;8.116;2023-08-01T03:07:56;3.80;;;3.50;;
29534;SDS011;16475;52.650;8.116;2023-08-01T03:10:22;3.33;;;3.03;;
29534;SDS011;16475;52.650;8.116;2023-08-01T03:12:47;4.93;;;3.30;;
29534;SDS011;16475;52.650;8.116;2023-08-01T03:15:12;6.87;;;3.90;;
29534;SDS011;16475;52.650;8.116;2023-08-01T03:17:38;2.10;;;2.00;;
29534;SDS011;16475;52.650;8.116;2023-08-01T03:20:03;3.50;;;2.97;;
29534;SDS011;16475;52.650;8.116;2023-08-01T03:22:29;2.53;;;2.33;;
29534;SDS011;16475;52.650;8.116;2023-08-01T03:24:55;78.80;;;4.30;;
29534;SDS011;16475;52.650;8.116;2023-08-01T03:27:21;3.17;;;2.90;;
29534;SDS011;16475;52.650;8.116;2023-08-01T03:29:46;3.97;;;3.57;;
29534;SDS011;16475;52.650;8.116;2023-08-01T03:32:12;12.47;;;3.90;;
29534;SDS011;16475;52.650;8.116;2023-08-01T03:34:37;22.07;;;4.27;;
29534;SDS011;16475;52.650;8.116;2023-08-01T03:37:04;3.00;;;2.80;;
29534;SDS011;16475;52.650;8.116;2023-08-01T03:39:30;4.13;;;3.73;;
29534;SDS011;16475;52.650;8.116;2023-08-01T03:41:55;3.87;;;3.57;;
29534;SDS011;16475;52.650;8.116;2023-08-01T03:44:20;10.67;;;5.10;;
29534;SDS011;16475;52.650;8.116;2023-08-01T03:46:46;6.63;;;5.33;;
29534;SDS011;16475;52.650;8.116;2023-08-01T03:49:12;9.07;;;4.93;;
29534;SDS011;16475;52.650;8.116;2023-08-01T03:51:38;5.27;;;4.77;;
29534;SDS011;16475;52.650;8.116;2023-08-01T03:54:03;5.80;;;4.13;;
29534;SDS011;16475;52.650;8.116;2023-08-01T03:56:28;8.73;;;4.47;;
29534;SDS011;16475;52.650;8.116;2023-08-01T03:58:54;46.10;;;4.63;;
29534;SDS011;16475;52.650;8.116;2023-08-01T04:01:19;6.47;;;4.50;;
29534;SDS011;16475;52.650;8.116;2023-08-01T04:03:46;6.77;;;4.30;;
29534;SDS011;16475;52.650;8.116;2023-08-01T04:06:12;13.40;;;5.93;;
29534;SDS011;16475;52.650;8.116;2023-08-01T04:08:40;9.27;;;4.13;;
29534;SDS011;16475;52.650;8.116;2023-08-01T04:11:05;4.50;;;3.70;;
29534;SDS011;16475;52.650;8.116;2023-08-01T04:13:31;3.50;;;3.30;;
29534;SDS011;16475;52.650;8.116;2023-08-01T04:15:56;5.93;;;4.00;;
29534;SDS011;16475;52.650;8.116;2023-08-01T04:18:21;5.97;;;4.10;;
29534;SDS011;16475;52.650;8.116;2023-08-01T04:20:47;4.77;;;2.90;;
29534;SDS011;16475;52.650;8.116;2023-08-01T04:23:13;5.03;;;3.40;;
29534;SDS011;16475;52.650;8.116;2023-08-01T04:25:40;7.23;;;5.90;;
29534;SDS011;16475;52.650;8.116;2023-08-01T04:28:05;5.93;;;5.37;;
29534;SDS011;16475;52.650;8.116;2023-08-01T04:30:31;10.00;;;4.10;;
29534;SDS011;16475;52.650;8.116;2023-08-01T04:32:58;4.83;;;4.43;;
29534;SDS011;16475;52.650;8.116;2023-08-01T04:35:23;7.20;;;3.30;;
29534;SDS011;16475;52.650;8.116;2023-08-01T04:37:48;4.33;;;3.70;;
29534;SDS011;16475;52.650;8.116;2023-08-01T04:40:14;3.90;;;3.57;;
29534;SDS011;16475;52.650;8.116;2023-08-01T04:42:39;4.70;;;4.30;;
29534;SDS011;16475;52.650;8.116;2023-08-01T04:45:05;9.00;;;5.50;;
29534;SDS011;16475;52.650;8.116;2023-08-01T04:47:32;61.33;;;6.23;;
29534;SDS011;16475;52.650;8.116;2023-08-01T04:49:57;7.77;;;4.70;;
29534;SDS011;16475;52.650;8.116;2023-08-01T04:52:22;4.83;;;3.83;;
29534;SDS011;16475;52.650;8.116;2023-08-01T04:54:48;8.97;;;3.57;;
29534;SDS011;16475;52.650;8.116;2023-08-01T04:57:13;3.13;;;2.83;;
29534;SDS011;16475;52.650;8.116;2023-08-01T04:59:38;3.43;;;3.17;;
29534;SDS011;16475;52.650;8.116;2023-08-01T05:02:04;3.87;;;3.40;;
29534;SDS011;16475;52.650;8.116;2023-08-01T05:04:29;17.33;;;3.67;;
29534;SDS011;16475;52.650;8.116;2023-08-01T05:06:54;7.93;;;3.30;;
29534;SDS011;16475;52.650;8.116;2023-08-01T05:09:20;2.73;;;2.50;;
29534;SDS011;16475;52.650;8.116;2023-08-01T05:11:45;44.87;;;5.67;;
29534;SDS011;16475;52.650;8.116;2023-08-01T05:14:11;4.40;;;4.10;;
29534;SDS011;16475;52.650;8.116;2023-08-01T05:16:36;9.93;;;3.67;;
29534;SDS011;16475;52.650;8.116;2023-08-01T05:19:01;6.87;;;3.77;;
29534;SDS011;16475;52.650;8.116;2023-08-01T05:21:27;3.20;;;2.90;;
29534;SDS011;16475;52.650;8.116;2023-08-01T05:23:52;3.83;;;3.53;;
29534;SDS011;16475;52.650;8.116;2023-08-01T05:26:17;3.20;;;3.00;;
29534;SDS011;16475;52.650;8.116;2023-08-01T05:28:43;3.27;;;2.90;;
29534;SDS011;16475;52.650;8.116;2023-08-01T05:31:08;3.63;;;3.20;;
29534;SDS011;16475;52.650;8.116;2023-08-01T05:33:33;30.50;;;5.13;;
29534;SDS011;16475;52.650;8.116;2023-08-01T05:35:59;3.53;;;2.80;;
29534;SDS011;16475;52.650;8.116;2023-08-01T05:38:24;16.13;;;6.60;;
29534;SDS011;16475;52.650;8.116;2023-08-01T05:40:49;13.73;;;3.07;;
29534;SDS011;16475;52.650;8.116;2023-08-01T05:43:15;3.67;;;3.33;;
29534;SDS011;16475;52.650;8.116;2023-08-01T05:45:40;4.03;;;3.23;;
29534;SDS011;16475;52.650;8.116;2023-08-01T05:48:06;8.17;;;2.13;;
29534;SDS011;16475;52.650;8.116;2023-08-01T05:50:32;6.77;;;4.30;;
29534;SDS011;16475;52.650;8.116;2023-08-01T05:52:57;45.23;;;3.67;;
29534;SDS011;16475;52.650;8.116;2023-08-01T05:55:22;10.80;;;3.60;;
29534;SDS011;16475;52.650;8.116;2023-08-01T05:57:48;4.57;;;3.80;;
29534;SDS011;16475;52.650;8.116;2023-08-01T06:00:17;9.23;;;4.13;;
29534;SDS011;16475;52.650;8.116;2023-08-01T06:02:42;8.33;;;3.10;;
29534;SDS011;16475;52.650;8.116;2023-08-01T06:05:08;21.53;;;4.30;;
29534;SDS011;16475;52.650;8.116;2023-08-01T06:07:33;3.47;;;2.70;;
29534;SDS011;16475;52.650;8.116;2023-08-01T06:10:01;2.30;;;2.10;;
29534;SDS011;16475;52.650;8.116;2023-08-01T06:12:26;11.73;;;4.00;;
29534;SDS011;16475;52.650;8.116;2023-08-01T06:14:51;9.33;;;3.00;;
29534;SDS011;16475;52.650;8.116;2023-08-01T06:17:17;2.30;;;2.17;;
29534;SDS011;16475;52.650;8.116;2023-08-01T06:19:42;3.40;;;3.10;;
29534;SDS011;16475;52.650;8.116;2023-08-01T06:22:08;2.40;;;2.30;;
29534;SDS011;16475;52.650;8.116;2023-08-01T06:24:33;2.77;;;2.50;;
29534;SDS011;16475;52.650;8.116;2023-08-01T06:26:59;8.20;;;2.87;;
29534;SDS011;16475;52.650;8.116;2023-08-01T06:29:24;2.73;;;2.43;;
29534;SDS011;16475;52.650;8.116;2023-08-01T06:31:50;4.53;;;2.97;;
29534;SDS011;16475;52.650;8.116;2023-08-01T06:34:15;6.50;;;3.90;;
29534;SDS011;16475;52.650;8.116;2023-08-01T06:36:41;27.37;;;2.23;;
29534;SDS011;16475;52.650;8.116;2023-08-01T06:39:06;2.63;;;2.33;;
29534;SDS011;16475;52.650;8.116;2023-08-01T06:41:32;3.50;;;2.53;;
29534;SDS011;16475;52.650;8.116;2023-08-01T06:43:57;21.10;;;2.33;;
29534;SDS011;16475;52.650;8.116;2023-08-01T06:46:22;1.70;;;1.60;;
29534;SDS011;16475;52.650;8.116;2023-08-01T06:48:48;1.97;;;1.73;;
29534;SDS011;16475;52.650;8.116;2023-08-01T06:51:13;1.40;;;1.30;;
29534;SDS011;16475;52.650;8.116;2023-08-01T06:53:38;2.07;;;1.93;;
29534;SDS011;16475;52.650;8.116;2023-08-01T06:56:04;1.87;;;1.77;;
29534;SDS011;16475;52.650;8.116;2023-08-01T06:58:29;3.33;;;3.03;;
29534;SDS011;16475;52.650;8.116;2023-08-01T07:00:55;2.53;;;2.17;;
29534;SDS011;16475;52.650;8.116;2023-08-01T07:03:20;6.77;;;2.50;;
29534;SDS011;16475;52.650;8.116;2023-08-01T07:05:45;3.07;;;2.60;;
29534;SDS011;16475;52.650;8.116;2023-08-01T07:08:11;5.93;;;4.20;;
29534;SDS011;16475;52.650;8.116;2023-08-01T07:10:36;1.90;;;1.80;;
29534;SDS011;16475;52.650;8.116;2023-08-01T07:13:02;1.77;;;1.67;;
29534;SDS011;16475;52.650;8.116;2023-08-01T07:15:29;2.27;;;2.17;;
29534;SDS011;16475;52.650;8.116;2023-08-01T07:17:55;12.03;;;2.80;;
29534;SDS011;16475;52.650;8.116;2023-08-01T07:20:21;5.43;;;3.67;;
29534;SDS011;16475;52.650;8.116;2023-08-01T07:22:46;2.37;;;2.20;;
29534;SDS011;16475;52.650;8.116;2023-08-01T07:25:11;3.00;;;2.63;;
29534;SDS011;16475;52.650;8.116;2023-08-01T07:27:37;2.63;;;1.83;;
29534;SDS011;16475;52.650;8.116;2023-08-01T07:30:03;3.10;;;1.90;;
29534;SDS011;16475;52.650;8.116;2023-08-01T07:32:29;4.17;;;2.30;;
29534;SDS011;16475;52.650;8.116;2023-08-01T07:34:54;1.77;;;1.67;;
29534;SDS011;16475;52.650;8.116;2023-08-01T07:37:20;3.40;;;2.53;;
29534;SDS011;16475;52.650;8.116;2023-08-01T07:39:45;3.90;;;2.23;;
29534;SDS011;16475;52.650;8.116;2023-08-01T07:42:10;7.03;;;2.30;;
29534;SDS011;16475;52.650;8.116;2023-08-01T07:44:36;2.67;;;2.53;;
29534;SDS011;16475;52.650;8.116;2023-08-01T07:47:01;7.57;;;3.07;;
29534;SDS011;16475;52.650;8.116;2023-08-01T07:49:26;1.73;;;1.30;;
29534;SDS011;16475;52.650;8.116;2023-08-01T07:51:52;5.80;;;2.30;;
29534;SDS011;16475;52.650;8.116;2023-08-01T07:54:17;8.80;;;2.90;;
29534;SDS011;16475;52.650;8.116;2023-08-01T07:56:42;2.07;;;1.87;;
29534;SDS011;16475;52.650;8.116;2023-08-01T07:59:08;2.60;;;2.43;;
29534;SDS011;16475;52.650;8.116;2023-08-01T08:01:35;16.50;;;3.80;;
29534;SDS011;16475;52.650;8.116;2023-08-01T08:04:01;2.53;;;2.33;;
29534;SDS011;16475;52.650;8.116;2023-08-01T08:06:27;1.37;;;1.37;;
29534;SDS011;16475;52.650;8.116;2023-08-01T08:08:52;2.50;;;2.20;;
29534;SDS011;16475;52.650;8.116;2023-08-01T08:11:18;2.73;;;1.27;;
29534;SDS011;16475;52.650;8.116;2023-08-01T08:13:43;2.30;;;2.07;;
29534;SDS011;16475;52.650;8.116;2023-08-01T08:16:09;1.63;;;1.50;;
29534;SDS011;16475;52.650;8.116;2023-08-01T08:18:34;2.53;;;2.33;;
29534;SDS011;16475;52.650;8.116;2023-08-01T08:20:59;3.80;;;2.03;;
29534;SDS011;16475;52.650;8.116;2023-08-01T08:23:25;1.70;;;1.60;;
29534;SDS011;16475;52.650;8.116;2023-08-01T08:25:50;3.00;;;1.93;;
29534;SDS011;16475;52.650;8.116;2023-08-01T08:28:26;7.20;;;1.53;;
29534;SDS011;16475;52.650;8.116;2023-08-01T08:30:53;3.10;;;2.20;;
29534;SDS011;16475;52.650;8.116;2023-08-01T08:33:22;3.00;;;2.80;;
29534;SDS011;16475;52.650;8.116;2023-08-01T08:35:47;1.70;;;1.60;;
29534;SDS011;16475;52.650;8.116;2023-08-01T08:38:13;2.43;;;1.97;;
29534;SDS011;16475;52.650;8.116;2023-08-01T08:40:43;1.30;;;1.30;;
29534;SDS011;16475;52.650;8.116;2023-08-01T08:43:17;0.90;;;0.90;;
29534;SDS011;16475;52.650;8.116;2023-08-01T08:45:43;2.50;;;2.23;;
29534;SDS011;16475;52.650;8.116;2023-08-01T08:48:11;1.60;;;1.50;;
29534;SDS011;16475;52.650;8.116;2023-08-01T08:50:38;1.60;;;1.50;;
29534;SDS011;16475;52.650;8.116;2023-08-01T08:53:05;1.60;;;1.60;;
29534;SDS011;16475;52.650;8.116;2023-08-01T08:55:37;2.53;;;1.50;;
29534;SDS011;16475;52.650;8.116;2023-08-01T08:58:02;1.47;;;1.37;;
29534;SDS011;16475;52.650;8.116;2023-08-01T09:00:28;1.37;;;1.37;;
29534;SDS011;16475;52.650;8.116;2023-08-01T09:02:54;1.17;;;1.17;;
29534;SDS011;16475;52.650;8.116;2023-08-01T09:05:20;1.60;;;1.50;;
29534;SDS011;16475;52.650;8.116;2023-08-01T09:07:46;2.10;;;2.00;;
29534;SDS011;16475;52.650;8.116;2023-08-01T09:10:13;3.00;;;1.90;;
29534;SDS011;16475;52.650;8.116;2023-08-01T09:12:38;2.20;;;1.87;;
29534;SDS011;16475;52.650;8.116;2023-08-01T09:15:04;1.70;;;1.60;;
29534;SDS011;16475;52.650;8.116;2023-08-01T09:17:30;7.00;;;2.30;;
29534;SDS011;16475;52.650;8.116;2023-08-01T09:20:05;4.60;;;1.10;;
29534;SDS011;16475;52.650;8.116;2023-08-01T09:22:40;4.40;;;1.10;;
29534;SDS011;16475;52.650;8.116;2023-08-01T09:25:06;1.60;;;1.50;;
29534;SDS011;16475;52.650;8.116;2023-08-01T09:27:32;7.83;;;1.93;;
29534;SDS011;16475;52.650;8.116;2023-08-01T09:30:04;1.70;;;1.60;;
29534;SDS011;16475;52.650;8.116;2023-08-01T09:32:34;9.43;;;1.73;;
29534;SDS011;16475;52.650;8.116;2023-08-01T09:35:00;3.60;;;2.03;;
29534;SDS011;16475;52.650;8.116;2023-08-01T09:37:25;8.90;;;2.93;;
29534;SDS011;16475;52.650;8.116;2023-08-01T09:39:54;1.10;;;1.00;;
29534;SDS011;16475;52.650;8.116;2023-08-01T09:42:20;1.30;;;1.20;;
29534;SDS011;16475;52.650;8.116;2023-08-01T09:44:46;1.30;;;1.30;;
29534;SDS011;16475;52.650;8.116;2023-08-01T09:47:14;1.00;;;1.00;;
29534;SDS011;16475;52.650;8.116;2023-08-01T09:49:47;3.03;;;1.57;;
29534;SDS011;16475;52.650;8.116;2023-08-01T09:52:13;4.93;;;1.83;;
29534;SDS011;16475;52.650;8.116;2023-08-01T09:54:39;1.83;;;1.77;;
29534;SDS011;16475;52.650;8.116;2023-08-01T09:57:04;4.47;;;2.80;;
29534;SDS011;16475;52.650;8.116;2023-08-01T09:59:31;2.03;;;1.40;;
29534;SDS011;16475;52.650;8.116;2023-08-01T10:01:57;7.40;;;1.33;;
29534;SDS011;16475;52.650;8.116;2023-08-01T10:04:24;1.20;;;1.20;;
29534;SDS011;16475;52.650;8.116;2023-08-01T10:06:59;1.60;;;1.60;;
29534;SDS011;16475;52.650;8.116;2023-08-01T10:09:25;2.77;;;2.03;;
29534;SDS011;16475;52.650;8.116;2023-08-01T10:11:51;3.07;;;2.57;;
29534;SDS011;16475;52.650;8.116;2023-08-01T10:14:19;4.67;;;1.50;;
29534;SDS011;16475;52.650;8.116;2023-08-01T10:16:44;5.37;;;2.07;;
29534;SDS011;16475;52.650;8.116;2023-08-01T10:19:12;1.60;;;1.50;;
29534;SDS011;16475;52.650;8.116;2023-08-01T10:21:38;2.37;;;1.40;;
29534;SDS011;16475;52.650;8.116;2023-08-01T10:24:04;2.60;;;1.83;;
29534;SDS011;16475;52.650;8.116;2023-08-01T10:26:30;1.43;;;1.43;;
29534;SDS011;16475;52.650;8.116;2023-08-01T10:28:55;1.00;;;1.00;;
29534;SDS011;16475;52.650;8.116;2023-08-01T10:31:23;1.70;;;1.17;;
29534;SDS011;16475;52.650;8.116;2023-08-01T10:33:49;3.60;;;1.90;;
29534;SDS011;16475;52.650;8.116;2023-08-01T10:36:22;7.17;;;2.73;;
29534;SDS011;16475;52.650;8.116;2023-08-01T10:38:55;1.73;;;1.63;;
29534;SDS011;16475;52.650;8.116;2023-08-01T10:41:25;7.30;;;2.17;;
29534;SDS011;16475;52.650;8.116;2023-08-01T10:49:19;1.10;;;1.10;;
29534;SDS011;16475;52.650;8.116;2023-08-01T10:51:46;1.13;;;1.13;;
29534;SDS011;16475;52.650;8.116;2023-08-01T10:54:22;3.47;;;1.87;;
29534;SDS011;16475;52.650;8.116;2023-08-01T10:56:48;2.33;;;1.10;;
29534;SDS011;16475;52.650;8.116;2023-08-01T10:59:15;2.50;;;1.90;;
29534;SDS011;16475;52.650;8.116;2023-08-01T11:01:43;1.20;;;1.20;;
29534;SDS011;16475;52.650;8.116;2023-08-01T11:04:16;2.13;;;1.97;;
29534;SDS011;16475;52.650;8.116;2023-08-01T11:06:46;1.80;;;1.70;;
29534;SDS011;16475;52.650;8.116;2023-08-01T11:09:19;2.03;;;1.93;;
29534;SDS011;16475;52.650;8.116;2023-08-01T11:11:50;2.17;;;1.60;;
29534;SDS011;16475;52.650;8.116;2023-08-01T11:14:19;4.40;;;2.30;;
29534;SDS011;16475;52.650;8.116;2023-08-01T11:16:45;9.33;;;4.20;;
29534;SDS011;16475;52.650;8.116;2023-08-01T11:21:45;1.53;;;1.53;;
29534;SDS011;16475;52.650;8.116;2023-08-01T11:24:11;1.33;;;1.33;;
29534;SDS011;16475;52.650;8.116;2023-08-01T11:26:40;2.90;;;2.70;;
29534;SDS011;16475;52.650;8.116;2023-08-01T11:29:09;4.57;;;4.20;;
29534;SDS011;16475;52.650;8.116;2023-08-01T11:31:35;6.13;;;3.10;;
29534;SDS011;16475;52.650;8.116;2023-08-01T11:34:00;1.30;;;1.30;;
29534;SDS011;16475;52.650;8.116;2023-08-01T11:36:26;2.40;;;2.20;;
29534;SDS011;16475;52.650;8.116;2023-08-01T11:38:53;1.73;;;1.63;;
29534;SDS011;16475;52.650;8.116;2023-08-01T11:41:19;3.53;;;1.80;;
29534;SDS011;16475;52.650;8.116;2023-08-01T11:43:44;1.33;;;1.10;;
29534;SDS011;16475;52.650;8.116;2023-08-01T11:46:10;1.40;;;1.40;;
29534;SDS011;16475;52.650;8.116;2023-08-01T11:48:36;7.47;;;1.50;;
29534;SDS011;16475;52.650;8.116;2023-08-01T11:51:01;1.27;;;1.27;;
29534;SDS011;16475;52.650;8.116;2023-08-01T11:53:27;1.63;;;1.27;;
29534;SDS011;16475;52.650;8.116;2023-08-01T11:55:54;4.73;;;2.03;;
29534;SDS011;16475;52.650;8.116;2023-08-01T11:58:55;4.00;;;2.10;;
29534;SDS011;16475;52.650;8.116;2023-08-01T12:01:14;3.90;;;1.87;;
29534;SDS011;16475;52.650;8.116;2023-08-01T12:06:14;8.00;;;1.70;;
29534;SDS011;16475;52.650;8.116;2023-08-01T12:08:41;6.10;;;2.47;;
29534;SDS011;16475;52.650;8.116;2023-08-01T12:11:26;1.60;;;1.50;;
29534;SDS011;16475;52.650;8.116;2023-08-01T12:16:34;2.20;;;1.20;;
29534;SDS011;16475;52.650;8.116;2023-08-01T12:18:59;3.30;;;2.20;;
29534;SDS011;16475;52.650;8.116;2023-08-01T12:21:25;5.30;;;1.13;;
29534;SDS011;16475;52.650;8.116;2023-08-01T12:23:50;21.93;;;1.90;;
29534;SDS011;16475;52.650;8.116;2023-08-01T12:26:16;1.20;;;1.13;;
29534;SDS011;16475;52.650;8.116;2023-08-01T12:28:41;2.50;;;1.23;;
29534;SDS011;16475;52.650;8.116;2023-08-01T12:31:07;4.63;;;1.30;;
29534;SDS011;16475;52.650;8.116;2023-08-01T12:33:32;1.63;;;1.20;;
29534;SDS011;16475;52.650;8.116;2023-08-01T12:35:59;1.53;;;1.43;;
29534;SDS011;16475;52.650;8.116;2023-08-01T12:38:25;4.60;;;1.63;;
29534;SDS011;16475;52.650;8.116;2023-08-01T12:40:51;4.30;;;1.60;;
29534;SDS011;16475;52.650;8.116;2023-08-01T12:43:16;1.30;;;1.30;;
29534;SDS011;16475;52.650;8.116;2023-08-01T12:45:42;4.00;;;1.17;;
29534;SDS011;16475;52.650;8.116;2023-08-01T12:48:07;4.90;;;1.60;;
29534;SDS011;16475;52.650;8.116;2023-08-01T12:50:32;0.90;;;0.90;;
29534;SDS011;16475;52.650;8.116;2023-08-01T12:52:58;2.43;;;1.37;;
29534;SDS011;16475;52.650;8.116;2023-08-01T12:55:23;2.87;;;2.50;;
29534;SDS011;16475;52.650;8.116;2023-08-01T12:57:48;1.00;;;1.00;;
29534;SDS011;16475;52.650;8.116;2023-08-01T13:00:14;3.27;;;1.27;;
29534;SDS011;16475;52.650;8.116;2023-08-01T13:02:39;1.00;;;1.00;;
29534;SDS011;16475;52.650;8.116;2023-08-01T13:05:05;1.20;;;1.10;;
29534;SDS011;16475;52.650;8.116;2023-08-01T13:07:30;1.43;;;1.03;;
29534;SDS011;16475;52.650;8.116;2023-08-01T13:09:59;1.03;;;1.03;;
29534;SDS011;16475;52.650;8.116;2023-08-01T13:12:25;1.07;;;1.03;;
29534;SDS011;16475;52.650;8.116;2023-08-01T13:14:51;3.13;;;1.60;;
29534;SDS011;16475;52.650;8.116;2023-08-01T13:17:16;3.70;;;1.13;;
29534;SDS011;16475;52.650;8.116;2023-08-01T13:19:41;1.27;;;1.10;;
29534;SDS011;16475;52.650;8.116;2023-08-01T13:22:06;1.70;;;1.60;;
29534;SDS011;16475;52.650;8.116;2023-08-01T13:24:32;0.80;;;0.80;;
29534;SDS011;16475;52.650;8.116;2023-08-01T13:26:58;1.20;;;1.20;;
29534;SDS011;16475;52.650;8.116;2023-08-01T13:29:23;0.87;;;0.87;;
29534;SDS011;16475;52.650;8.116;2023-08-01T13:31:49;12.17;;;1.10;;
29534;SDS011;16475;52.650;8.116;2023-08-01T13:34:14;2.20;;;0.90;;
29534;SDS011;16475;52.650;8.116;2023-08-01T13:36:39;2.80;;;0.90;;
29534;SDS011;16475;52.650;8.116;2023-08-01T13:39:05;0.80;;;0.80;;
29534;SDS011;16475;52.650;8.116;2023-08-01T13:41:32;0.93;;;0.93;;
29534;SDS011;16475;52.650;8.116;2023-08-01T13:43:58;0.97;;;0.97;;
29534;SDS011;16475;52.650;8.116;2023-08-01T13:46:23;4.17;;;0.93;;
29534;SDS011;16475;52.650;8.116;2023-08-01T13:48:48;1.33;;;1.03;;
29534;SDS011;16475;52.650;8.116;2023-08-01T13:51:14;1.90;;;0.90;;
29534;SDS011;16475;52.650;8.116;2023-08-01T13:53:39;3.70;;;1.13;;
29534;SDS011;16475;52.650;8.116;2023-08-01T13:56:08;1.37;;;0.80;;
29534;SDS011;16475;52.650;8.116;2023-08-01T13:58:37;0.80;;;0.80;;
29534;SDS011;16475;52.650;8.116;2023-08-01T14:01:06;0.83;;;0.83;;
29534;SDS011;16475;52.650;8.116;2023-08-01T14:03:36;5.03;;;1.40;;
29534;SDS011;16475;52.650;8.116;2023-08-01T14:06:05;3.90;;;1.40;;
29534;SDS011;16475;52.650;8.116;2023-08-01T14:08:31;1.03;;;1.03;;
29534;SDS011;16475;52.650;8.116;2023-08-01T14:10:57;1.20;;;1.10;;
29534;SDS011;16475;52.650;8.116;2023-08-01T14:13:22;22.67;;;2.30;;
29534;SDS011;16475;52.650;8.116;2023-08-01T14:15:47;6.63;;;1.53;;
29534;SDS011;16475;52.650;8.116;2023-08-01T14:18:13;1.10;;;1.10;;
29534;SDS011;16475;52.650;8.116;2023-08-01T14:20:38;1.60;;;1.30;;
29534;SDS011;16475;52.650;8.116;2023-08-01T14:23:04;0.77;;;0.77;;
29534;SDS011;16475;52.650;8.116;2023-08-01T14:25:29;5.17;;;1.73;;
29534;SDS011;16475;52.650;8.116;2023-08-01T14:27:54;0.87;;;0.87;;
29534;SDS011;16475;52.650;8.116;2023-08-01T14:30:20;1.90;;;1.20;;
29534;SDS011;16475;52.650;8.116;2023-08-01T14:32:45;0.90;;;0.90;;
29534;SDS011;16475;52.650;8.116;2023-08-01T14:35:10;1.63;;;1.53;;
29534;SDS011;16475;52.650;8.116;2023-08-01T14:37:36;1.33;;;1.23;;
29534;SDS011;16475;52.650;8.116;2023-08-01T14:40:02;1.60;;;1.20;;
29534;SDS011;16475;52.650;8.116;2023-08-01T14:42:28;1.03;;;1.03;;
29534;SDS011;16475;52.650;8.116;2023-08-01T14:44:54;6.20;;;1.93;;
29534;SDS011;16475;52.650;8.116;2023-08-01T14:47:19;2.10;;;1.13;;
29534;SDS011;16475;52.650;8.116;2023-08-01T14:49:45;12.23;;;1.57;;
29534;SDS011;16475;52.650;8.116;2023-08-01T14:52:12;1.80;;;1.20;;